»·PEaware :: N164BW KPRC-KFLG

N164BW :: KPRC-KFLG

FLIGHT INFORMATION

Flight Status: Arrived
Operator: Privately registered:
United States
More flights under this callsign
Pilot: Steve R. (35445)
Aircraft: CIRRUS SR-22
(SR22)
More flights by this aircraft type
Origin: KPRC Love
United States
Destination: KFLG Flagstaff Pulliam
United States
More flights between these airports :: More routes between these airports
Route: PRC3 DRK V12 OATES V327 FLG
File this flight plan on PilotEdge
Remarks:
Altitude:
(Current/Filed)
11,000ft
Speed:
(Current/Filed)
150kts
Departed: 08-Oct-23 01:56 PM
Arrived: 08-Oct-23 02:46 PM
Distance/Time
Traveled:
47nm/0:50
Distance/Time
To Go:
Arrived

Flight Plot

Page will automatically refresh every two minutes.

Flight plan parsing failed; only flown route is shown


Map Options




Map Legend


Flown Route
Filed Route
Departure Airport
Arrival Airport
Navaid (VOR, NDB)
Fix

Horizontal Profiles

Position Reports

Time Latitude Longitude Heading Altitude Ground
Speed
08-Oct-23 13:21 34.646778 -112.425142 217 5025ft 0kts
08-Oct-23 13:22 34.646778 -112.425142 217 5025ft 0kts
08-Oct-23 13:23 34.646778 -112.425142 217 5025ft 0kts
08-Oct-23 13:24 34.646778 -112.425142 217 5025ft 0kts
08-Oct-23 13:25 34.646778 -112.425142 217 5025ft 0kts
08-Oct-23 13:26 34.646778 -112.425142 217 5025ft 0kts
08-Oct-23 13:27 34.646778 -112.425142 217 5025ft 0kts
08-Oct-23 13:28 34.646778 -112.425142 217 5025ft 0kts
08-Oct-23 13:28 34.646778 -112.425142 217 5025ft 0kts
08-Oct-23 13:30 34.646778 -112.425142 217 5025ft 0kts
08-Oct-23 13:31 34.646778 -112.425142 217 5025ft 0kts
08-Oct-23 13:32 34.646778 -112.425142 217 5025ft 0kts
08-Oct-23 13:32 34.646778 -112.425142 217 5025ft 0kts
08-Oct-23 13:33 34.646778 -112.425142 217 5025ft 0kts
08-Oct-23 13:34 34.646778 -112.425142 217 5025ft 0kts
08-Oct-23 13:36 34.646778 -112.425142 217 5025ft 0kts
08-Oct-23 13:37 34.646778 -112.425142 217 5025ft 0kts
08-Oct-23 13:37 34.646778 -112.425142 217 5025ft 0kts
08-Oct-23 13:38 34.646778 -112.425142 217 5025ft 0kts
08-Oct-23 13:39 34.646778 -112.425142 217 5034ft 0kts
08-Oct-23 13:40 34.646778 -112.425142 217 5034ft 0kts
08-Oct-23 13:41 34.646778 -112.425142 217 5034ft 0kts
08-Oct-23 13:42 34.646778 -112.425142 217 5034ft 0kts
08-Oct-23 13:43 34.646778 -112.425142 217 5034ft 0kts
08-Oct-23 13:44 34.646778 -112.425142 217 5034ft 0kts
08-Oct-23 13:45 34.646778 -112.425142 217 5034ft 0kts
08-Oct-23 13:46 34.646778 -112.425142 217 5034ft 0kts
08-Oct-23 13:47 34.646778 -112.425142 217 5034ft 0kts
08-Oct-23 13:48 34.646778 -112.425142 217 5034ft 0kts
08-Oct-23 13:49 34.646989 -112.425122 13 5024ft 9kts
08-Oct-23 13:50 34.649353 -112.423182 40 5023ft 13kts
08-Oct-23 13:51 34.654702 -112.417508 40 4998ft 32kts
08-Oct-23 13:52 34.661073 -112.410067 17 4957ft 15kts
08-Oct-23 13:53 34.661523 -112.410513 310 4958ft 0kts
08-Oct-23 13:54 34.661523 -112.410513 310 4958ft 0kts
08-Oct-23 13:55 34.660707 -112.412918 220 4968ft 45kts
08-Oct-23 13:56 34.640119 -112.433017 214 5475ft 116kts
08-Oct-23 13:57 34.613670 -112.454319 214 6581ft 113kts
08-Oct-23 13:58 34.587295 -112.475463 222 7391ft 114kts
08-Oct-23 13:59 34.606574 -112.489626 358 8031ft 112kts
08-Oct-23 14:00 34.638210 -112.489249 0 8562ft 114kts
08-Oct-23 14:01 34.670243 -112.488929 0 8870ft 115kts
08-Oct-23 14:02 34.702467 -112.488647 0 9063ft 116kts
08-Oct-23 14:03 34.716437 -112.464151 77 9239ft 107kts
08-Oct-23 14:04 34.723254 -112.428923 76 9295ft 107kts
08-Oct-23 14:05 34.730598 -112.393713 76 9956ft 107kts
08-Oct-23 14:06 34.737929 -112.358141 76 10765ft 109kts
08-Oct-23 14:07 34.747091 -112.312996 76 10846ft 163kts
08-Oct-23 14:08 34.758833 -112.256159 76 10803ft 178kts
08-Oct-23 14:09 34.771225 -112.196874 76 10756ft 182kts
08-Oct-23 14:10 34.783774 -112.137900 75 10710ft 176kts
08-Oct-23 14:11 34.795638 -112.081158 76 10724ft 171kts
08-Oct-23 14:12 34.807364 -112.025236 76 10772ft 170kts
08-Oct-23 14:13 34.819028 -111.969385 76 10815ft 169kts
08-Oct-23 14:14 34.830578 -111.913974 76 10859ft 169kts
08-Oct-23 14:15 34.842170 -111.858227 76 10874ft 170kts
08-Oct-23 14:16 34.853725 -111.802537 76 10875ft 170kts
08-Oct-23 14:17 34.865294 -111.746660 76 10873ft 170kts
08-Oct-23 14:18 34.876866 -111.690264 76 10876ft 173kts
08-Oct-23 14:19 34.888548 -111.633804 76 10841ft 172kts
08-Oct-23 14:20 34.900155 -111.577287 76 10810ft 171kts
08-Oct-23 14:21 34.911786 -111.520365 76 10782ft 174kts
08-Oct-23 14:22 34.923445 -111.463458 76 10796ft 172kts
08-Oct-23 14:23 34.935057 -111.406445 76 10771ft 173kts
08-Oct-23 14:24 34.946617 -111.349488 76 10740ft 174kts
08-Oct-23 14:25 34.976756 -111.311249 15 10619ft 158kts
08-Oct-23 14:26 35.016483 -111.296790 15 10125ft 143kts
08-Oct-23 14:27 35.053831 -111.283369 15 9945ft 139kts
08-Oct-23 14:28 35.091636 -111.269698 15 9946ft 146kts
08-Oct-23 14:29 35.131427 -111.255293 15 9927ft 150kts
08-Oct-23 14:30 35.170614 -111.241105 15 9896ft 144kts
08-Oct-23 14:31 35.208289 -111.236283 323 9876ft 137kts
08-Oct-23 14:32 35.231975 -111.272227 306 9908ft 136kts
08-Oct-23 14:33 35.255144 -111.309140 306 9940ft 137kts
08-Oct-23 14:34 35.278420 -111.346304 306 9967ft 137kts
08-Oct-23 14:35 35.301665 -111.383416 306 9985ft 138kts
08-Oct-23 14:36 35.324798 -111.420408 306 9994ft 136kts
08-Oct-23 14:37 35.317893 -111.459693 225 10035ft 136kts
08-Oct-23 14:38 35.290023 -111.492985 224 10089ft 142kts
08-Oct-23 14:39 35.260976 -111.527502 224 10064ft 151kts
08-Oct-23 14:40 35.230774 -111.563407 224 9319ft 140kts
08-Oct-23 14:41 35.204404 -111.594689 224 8669ft 125kts
08-Oct-23 14:42 35.180455 -111.623038 223 8053ft 114kts
08-Oct-23 14:43 35.160160 -111.646652 225 7459ft 91kts
08-Oct-23 14:44 35.142210 -111.667236 224 7022ft 69kts
08-Oct-23 14:45 35.137312 -111.673746 311 7010ft 0kts
08-Oct-23 14:46 35.138553 -111.674745 353 7008ft 0kts

Navigation Log

Ident Type
Flight plan parsing failed, navigation log unavailable